createdAt,value
2022-11-01T00:02:08.888Z,14.88
2022-11-01T00:04:36.805Z,13.27
2022-11-01T00:07:05.496Z,13.85
2022-11-01T00:09:33.263Z,12.48
2022-11-01T00:12:01.003Z,12.68
2022-11-01T00:14:28.582Z,14.13
2022-11-01T00:16:56.241Z,14.85
2022-11-01T00:19:28.644Z,12.82
2022-11-01T00:21:56.994Z,14.40
2022-11-01T00:24:25.397Z,13.52
2022-11-01T00:26:54.749Z,13.75
2022-11-01T00:29:22.582Z,13.90
2022-11-01T00:31:50.428Z,11.45
2022-11-01T00:34:18.311Z,12.95
2022-11-01T00:36:46.935Z,10.45
2022-11-01T00:39:14.980Z,9.55
2022-11-01T00:41:42.805Z,11.85
2022-11-01T00:44:10.600Z,9.43
2022-11-01T00:46:38.584Z,9.63
2022-11-01T00:49:06.273Z,8.93
2022-11-01T00:51:34.159Z,8.23
2022-11-01T00:54:01.978Z,7.72
2022-11-01T00:56:29.912Z,7.90
2022-11-01T00:58:58.104Z,7.55
2022-11-01T01:01:26.167Z,7.15
2022-11-01T01:03:54.324Z,8.30
2022-11-01T01:06:22.093Z,8.68
2022-11-01T01:08:50.523Z,8.85
2022-11-01T01:11:18.332Z,8.77
2022-11-01T01:13:46.888Z,9.50
2022-11-01T01:16:14.809Z,8.88
2022-11-01T01:18:43.311Z,9.15
2022-11-01T01:21:11.430Z,9.48
2022-11-01T01:23:39.680Z,9.45
2022-11-01T01:26:08.619Z,9.82
2022-11-01T01:28:41.693Z,10.05
2022-11-01T01:31:13.109Z,10.43
2022-11-01T01:33:42.243Z,8.60
2022-11-01T01:36:10.074Z,8.85
2022-11-01T01:38:38.082Z,9.35
2022-11-01T01:41:24.757Z,9.23
2022-11-01T01:43:52.608Z,8.52
2022-11-01T01:46:20.494Z,8.77
2022-11-01T01:48:52.050Z,8.88
2022-11-01T01:51:21.846Z,8.18
2022-11-01T01:53:51.884Z,9.23
2022-11-01T01:56:35.701Z,8.45
2022-11-01T01:59:08.292Z,8.80
2022-11-01T02:01:38.162Z,9.02
2022-11-01T02:04:09.360Z,7.80
2022-11-01T02:06:37.415Z,8.32
2022-11-01T02:09:05.587Z,7.95
2022-11-01T02:11:34.533Z,7.25
2022-11-01T02:14:03.335Z,7.10
2022-11-01T02:16:55.602Z,8.05
2022-11-01T02:20:07.707Z,8.18
2022-11-01T02:23:03.859Z,7.30
2022-11-01T02:25:34.965Z,6.90
2022-11-01T02:28:22.407Z,6.28
2022-11-01T02:31:28.121Z,7.05
2022-11-01T02:34:01.679Z,7.65
2022-11-01T02:36:40.748Z,7.20
2022-11-01T02:39:30.919Z,7.60
2022-11-01T02:42:12.021Z,6.90
2022-11-01T02:44:43.265Z,6.72
2022-11-01T02:47:12.344Z,6.75
2022-11-01T02:49:47.464Z,6.75
2022-11-01T02:52:24.970Z,7.47
2022-11-01T02:54:54.019Z,7.00
2022-11-01T02:57:34.645Z,6.32
2022-11-01T03:00:19.903Z,6.32
2022-11-01T03:02:48.780Z,6.65
2022-11-01T03:05:55.872Z,5.65
2022-11-01T03:08:32.561Z,5.57
2022-11-01T03:11:04.575Z,5.57
2022-11-01T03:13:44.884Z,6.07
2022-11-01T03:16:28.102Z,5.72
2022-11-01T03:19:23.714Z,6.90
2022-11-01T03:21:53.200Z,6.40
2022-11-01T03:24:43.910Z,6.55
2022-11-01T03:27:32.811Z,4.53
2022-11-01T03:30:05.936Z,5.95
2022-11-01T03:32:46.076Z,6.55
2022-11-01T03:35:17.098Z,6.20
2022-11-01T03:37:44.883Z,5.80
2022-11-01T03:40:13.564Z,5.68
2022-11-01T03:42:44.871Z,6.35
2022-11-01T03:45:12.716Z,6.38
2022-11-01T03:47:42.009Z,5.88
2022-11-01T03:50:23.160Z,5.25
2022-11-01T03:55:19.368Z,5.32
2022-11-01T03:57:54.804Z,5.82
2022-11-01T04:00:23.394Z,5.88
2022-11-01T04:02:53.314Z,5.57
2022-11-01T04:05:22.056Z,5.90
2022-11-01T04:07:51.605Z,5.38
2022-11-01T04:10:19.770Z,7.30
2022-11-01T04:12:49.158Z,5.68
2022-11-01T04:15:36.327Z,6.10
2022-11-01T04:18:53.260Z,5.97
2022-11-01T04:21:23.477Z,5.82
2022-11-01T04:23:51.315Z,5.80
2022-11-01T04:26:22.585Z,5.78
2022-11-01T04:28:57.794Z,6.15
2022-11-01T04:31:37.127Z,5.55
2022-11-01T04:34:05.479Z,5.55
2022-11-01T04:36:33.845Z,5.60
2022-11-01T04:39:02.173Z,6.35
2022-11-01T04:41:30.553Z,6.03
2022-11-01T04:44:00.191Z,6.32
2022-11-01T04:46:31.955Z,5.20
2022-11-01T04:51:27.250Z,5.13
2022-11-01T04:53:55.179Z,6.43
2022-11-01T04:56:22.883Z,6.38
2022-11-01T04:58:50.982Z,5.40
2022-11-01T05:01:18.801Z,5.75
2022-11-01T05:03:48.480Z,5.38
2022-11-01T05:06:16.596Z,4.85
2022-11-01T05:08:44.377Z,6.03
2022-11-01T05:11:14.453Z,6.10
2022-11-01T05:13:44.627Z,6.05
2022-11-01T05:16:20.661Z,5.65
2022-11-01T05:18:49.001Z,5.75
2022-11-01T05:21:18.284Z,5.95
2022-11-01T05:23:49.919Z,6.65
2022-11-01T05:26:17.758Z,5.53
2022-11-01T05:28:48.212Z,3.40
2022-11-01T05:31:16.120Z,5.40
2022-11-01T05:33:43.792Z,5.05
2022-11-01T05:36:11.751Z,4.22
2022-11-01T05:38:40.593Z,5.30
2022-11-01T05:41:09.185Z,4.05
2022-11-01T05:43:36.904Z,4.57
2022-11-01T05:46:05.901Z,5.38
2022-11-01T05:48:34.025Z,6.22
2022-11-01T05:51:01.828Z,6.10
2022-11-01T05:53:29.710Z,5.35
2022-11-01T05:55:57.698Z,5.18
2022-11-01T05:58:29.572Z,5.32
2022-11-01T06:00:59.561Z,4.70
2022-11-01T06:03:27.852Z,4.35
2022-11-01T06:05:55.938Z,4.88
2022-11-01T06:08:23.861Z,4.20
2022-11-01T06:10:51.866Z,4.53
2022-11-01T06:13:19.658Z,4.05
2022-11-01T06:15:48.097Z,4.07
2022-11-01T06:18:15.964Z,4.18
2022-11-01T06:20:44.316Z,4.32
2022-11-01T06:23:13.403Z,4.10
2022-11-01T06:25:42.628Z,4.10
2022-11-01T06:28:10.873Z,4.22
2022-11-01T06:30:41.810Z,5.10
2022-11-01T06:33:10.265Z,4.15
2022-11-01T06:35:38.944Z,4.45
2022-11-01T06:38:07.168Z,5.00
2022-11-01T06:40:37.928Z,4.10
2022-11-01T06:43:06.652Z,4.00
2022-11-01T06:45:34.855Z,2.10
2022-11-01T06:48:03.175Z,4.68
2022-11-01T06:50:31.710Z,5.05
2022-11-01T06:53:00.246Z,4.45
2022-11-01T06:55:28.986Z,3.70
2022-11-01T06:57:58.025Z,3.92
2022-11-01T07:00:26.477Z,4.18
2022-11-01T07:03:15.072Z,4.53
2022-11-01T07:05:43.904Z,4.10
2022-11-01T07:08:13.198Z,5.03
2022-11-01T07:10:43.229Z,4.95
2022-11-01T07:13:12.273Z,3.35
2022-11-01T07:15:40.594Z,4.30
2022-11-01T07:18:09.601Z,5.22
2022-11-01T07:20:43.257Z,3.10
2022-11-01T07:23:14.754Z,4.30
2022-11-01T07:25:44.032Z,2.40
2022-11-01T07:28:12.965Z,3.17
2022-11-01T07:30:43.909Z,3.92
2022-11-01T07:33:12.028Z,4.05
2022-11-01T07:35:39.932Z,3.30
2022-11-01T07:38:12.457Z,4.03
2022-11-01T07:40:41.511Z,4.22
2022-11-01T07:43:19.541Z,4.28
2022-11-01T07:45:47.935Z,3.78
2022-11-01T07:48:17.499Z,4.13
2022-11-01T07:50:46.038Z,3.58
2022-11-01T07:53:18.536Z,5.00
2022-11-01T07:55:48.325Z,3.95
2022-11-01T07:58:16.482Z,2.55
2022-11-01T08:00:49.866Z,4.60
2022-11-01T08:03:19.451Z,3.85
2022-11-01T08:05:48.702Z,3.57
2022-11-01T08:08:16.808Z,3.08
2022-11-01T08:10:50.757Z,3.90
2022-11-01T08:13:23.460Z,3.95
2022-11-01T08:15:53.136Z,3.15
2022-11-01T08:18:22.889Z,3.80
2022-11-01T08:20:51.021Z,2.65
2022-11-01T08:23:18.949Z,3.63
2022-11-01T08:25:46.733Z,3.90
2022-11-01T08:28:17.048Z,2.72
2022-11-01T08:30:46.003Z,3.28
2022-11-01T08:33:36.251Z,1.80
2022-11-01T08:36:02.291Z,2.10
2022-11-01T08:38:31.123Z,1.63
2022-11-01T08:40:59.476Z,2.38
2022-11-01T08:43:31.854Z,2.20
2022-11-01T08:46:00.832Z,1.83
2022-11-01T08:48:28.770Z,1.35
2022-11-01T08:50:56.480Z,2.00
2022-11-01T08:53:27.146Z,1.73
2022-11-01T08:55:56.330Z,2.00
2022-11-01T08:58:25.243Z,1.63
2022-11-01T09:00:53.784Z,2.08
2022-11-01T09:03:21.825Z,1.60
2022-11-01T09:05:50.010Z,2.10
2022-11-01T09:08:18.336Z,1.92
2022-11-01T09:10:48.676Z,2.20
2022-11-01T09:13:17.016Z,2.47
2022-11-01T09:15:48.401Z,2.13
2022-11-01T09:18:16.624Z,1.30
2022-11-01T09:20:45.959Z,2.60
2022-11-01T09:23:16.568Z,1.95
2022-11-01T09:25:48.646Z,1.80
2022-11-01T09:28:17.093Z,1.92
2022-11-01T09:30:50.173Z,1.83
2022-11-01T09:33:30.041Z,1.70
2022-11-01T09:35:59.760Z,2.22
2022-11-01T09:38:27.729Z,1.48
2022-11-01T09:40:59.545Z,1.83
2022-11-01T09:43:28.771Z,1.73
2022-11-01T09:45:59.327Z,1.85
2022-11-01T09:48:30.946Z,1.95
2022-11-01T09:51:07.936Z,1.58
2022-11-01T09:53:36.195Z,1.90
2022-11-01T09:56:13.222Z,1.70
2022-11-01T09:58:51.329Z,1.60
2022-11-01T10:01:47.759Z,1.88
2022-11-01T10:04:23.210Z,1.65
2022-11-01T10:06:56.657Z,2.13
2022-11-01T10:10:15.875Z,2.03
2022-11-01T10:13:11.524Z,1.60
2022-11-01T10:16:04.256Z,1.17
2022-11-01T10:18:33.482Z,1.58
2022-11-01T10:21:04.872Z,3.10
2022-11-01T10:23:49.540Z,1.95
2022-11-01T10:26:28.820Z,1.52
2022-11-01T10:28:59.520Z,1.83
2022-11-01T10:31:27.787Z,2.03
2022-11-01T10:33:57.342Z,1.85
2022-11-01T10:39:54.745Z,1.63
2022-11-01T10:42:21.920Z,1.75
2022-11-01T10:45:09.023Z,2.08
2022-11-01T10:47:38.761Z,2.20
2022-11-01T10:50:12.516Z,2.17
2022-11-01T10:52:52.331Z,2.65
2022-11-01T10:55:22.186Z,2.20
2022-11-01T10:57:53.473Z,2.15
2022-11-01T11:00:24.039Z,2.45
2022-11-01T11:05:26.548Z,2.00
2022-11-01T11:07:57.933Z,1.50
2022-11-01T11:10:27.309Z,2.10
2022-11-01T11:13:01.740Z,1.67
2022-11-01T11:15:51.319Z,1.77
2022-11-01T11:18:21.937Z,1.50
2022-11-01T11:21:02.643Z,2.08
2022-11-01T11:23:34.156Z,2.90
2022-11-01T11:26:10.717Z,2.33
2022-11-01T11:28:44.472Z,1.13
2022-11-01T11:31:21.640Z,2.00
2022-11-01T11:33:51.807Z,1.52
2022-11-01T11:36:28.377Z,2.30
2022-11-01T11:38:56.362Z,1.95
2022-11-01T11:41:36.752Z,1.67
2022-11-01T11:44:04.538Z,2.50
2022-11-01T11:46:32.430Z,2.80
2022-11-01T11:49:04.613Z,2.10
2022-11-01T11:51:35.838Z,2.35
2022-11-01T11:54:06.564Z,2.03
2022-11-01T11:56:34.188Z,2.70
2022-11-01T11:59:08.495Z,2.90
2022-11-01T12:01:36.822Z,2.70
2022-11-01T12:04:16.223Z,2.80
2022-11-01T12:06:45.680Z,2.37
2022-11-01T12:09:37.878Z,2.20
2022-11-01T12:12:29.660Z,1.90
2022-11-01T12:14:57.800Z,4.00
2022-11-01T12:17:29.309Z,2.25
2022-11-01T12:20:10.014Z,2.05
2022-11-01T12:22:39.647Z,2.15
2022-11-01T12:25:23.664Z,2.38
2022-11-01T12:28:06.266Z,2.10
2022-11-01T12:30:36.567Z,2.15
2022-11-01T12:33:21.794Z,2.10
2022-11-01T12:35:49.940Z,2.83
2022-11-01T12:38:41.026Z,1.67
2022-11-01T12:41:46.552Z,1.95
2022-11-01T12:44:34.303Z,2.33
2022-11-01T12:47:27.655Z,2.58
2022-11-01T12:50:03.993Z,1.90
2022-11-01T12:52:38.758Z,2.13
2022-11-01T12:55:15.302Z,1.90
2022-11-01T12:57:46.190Z,2.05
2022-11-01T13:00:18.639Z,1.77
2022-11-01T13:02:59.622Z,2.40
2022-11-01T13:06:05.566Z,2.28
2022-11-01T13:08:44.324Z,2.35
2022-11-01T13:11:50.739Z,2.33
2022-11-01T13:14:25.428Z,2.65
2022-11-01T13:16:59.713Z,2.30
2022-11-01T13:19:43.733Z,2.70
2022-11-01T13:22:22.514Z,2.50
2022-11-01T13:25:01.706Z,2.13
2022-11-01T13:27:41.642Z,1.83
2022-11-01T13:30:13.286Z,2.70
2022-11-01T13:33:11.787Z,1.83
2022-11-01T13:35:55.092Z,2.42
2022-11-01T13:38:32.668Z,2.40
2022-11-01T13:41:22.551Z,2.30
2022-11-01T13:43:53.693Z,2.63
2022-11-01T13:46:30.689Z,2.70
2022-11-01T13:49:33.416Z,3.00
2022-11-01T13:52:08.531Z,2.05
2022-11-01T13:54:53.661Z,2.92
2022-11-01T13:57:25.096Z,3.08
2022-11-01T14:00:07.182Z,2.67
2022-11-01T14:02:54.334Z,3.10
2022-11-01T14:05:22.628Z,3.67
2022-11-01T14:07:53.538Z,3.15
2022-11-01T14:10:28.435Z,4.20
2022-11-01T14:13:08.663Z,4.75
2022-11-01T14:15:54.997Z,4.70
2022-11-01T14:18:23.089Z,6.03
2022-11-01T14:20:52.115Z,5.20
2022-11-01T14:23:30.024Z,4.05
2022-11-01T14:26:20.342Z,3.63
2022-11-01T14:28:54.526Z,4.15
2022-11-01T14:31:24.757Z,3.72
2022-11-01T14:33:56.102Z,5.05
2022-11-01T14:36:29.915Z,3.97
2022-11-01T14:39:09.355Z,4.15
2022-11-01T14:41:39.431Z,4.88
2022-11-01T14:44:15.349Z,4.93
2022-11-01T14:46:46.688Z,5.03
2022-11-01T14:52:14.135Z,5.50
2022-11-01T14:54:45.210Z,5.03
2022-11-01T14:57:26.044Z,4.68
2022-11-01T14:59:54.324Z,3.57
2022-11-01T15:02:22.952Z,3.97
2022-11-01T15:04:52.740Z,3.55
2022-11-01T15:07:29.536Z,4.32
2022-11-01T15:10:00.312Z,4.35
2022-11-01T15:12:30.289Z,3.42
2022-11-01T15:15:01.748Z,4.20
2022-11-01T15:17:31.663Z,4.60
2022-11-01T15:19:59.816Z,4.53
2022-11-01T15:22:28.596Z,4.32
2022-11-01T15:25:04.964Z,4.43
2022-11-01T15:27:40.050Z,5.88
2022-11-01T15:30:08.288Z,5.45
2022-11-01T15:32:36.264Z,6.30
2022-11-01T15:35:16.529Z,8.45
2022-11-01T15:37:49.266Z,8.55
2022-11-01T15:40:27.883Z,11.02
2022-11-01T15:43:00.018Z,12.75
2022-11-01T15:45:33.176Z,13.70
2022-11-01T15:48:09.001Z,15.23
2022-11-01T15:50:38.655Z,17.13
2022-11-01T15:53:11.299Z,20.92
2022-11-01T15:55:44.437Z,22.17
2022-11-01T15:58:18.507Z,22.95
2022-11-01T16:00:52.629Z,23.42
2022-11-01T16:03:52.895Z,23.83
2022-11-01T16:06:26.988Z,27.13
2022-11-01T16:08:59.875Z,27.42
2022-11-01T16:11:29.483Z,29.08
2022-11-01T16:14:03.530Z,30.77
2022-11-01T16:16:55.127Z,29.85
2022-11-01T16:19:51.681Z,29.48
2022-11-01T16:22:44.704Z,32.30
2022-11-01T16:25:16.500Z,33.33
2022-11-01T16:27:52.251Z,33.10
2022-11-01T16:30:39.191Z,32.45
2022-11-01T16:33:19.402Z,32.80
2022-11-01T16:35:49.721Z,30.65
2022-11-01T16:38:36.113Z,32.42
2022-11-01T16:41:19.131Z,30.98
2022-11-01T16:44:13.844Z,29.35
2022-11-01T16:46:43.020Z,27.55
2022-11-01T16:49:24.525Z,24.58
2022-11-01T16:54:20.403Z,21.98
2022-11-01T16:56:55.899Z,20.15
2022-11-01T16:59:39.299Z,21.30
2022-11-01T17:02:28.167Z,23.25
2022-11-01T17:05:06.636Z,22.70
2022-11-01T17:07:37.040Z,24.52
2022-11-01T17:10:21.296Z,24.77
2022-11-01T17:12:50.384Z,24.70
2022-11-01T17:15:19.707Z,24.92
2022-11-01T17:17:49.895Z,36.42
2022-11-01T17:20:23.922Z,29.35
2022-11-01T17:22:53.623Z,27.05
2022-11-01T17:25:25.135Z,27.17
2022-11-01T17:30:21.215Z,29.17
2022-11-01T17:32:49.098Z,27.30
2022-11-01T17:35:20.349Z,29.63
2022-11-01T17:37:50.722Z,29.00
2022-11-01T17:40:22.988Z,29.92
2022-11-01T17:42:51.039Z,29.67
2022-11-01T17:45:19.761Z,28.23
2022-11-01T17:47:47.727Z,28.95
2022-11-01T17:50:16.340Z,29.50
2022-11-01T17:52:44.096Z,27.63
2022-11-01T17:55:12.369Z,31.42
2022-11-01T17:57:41.582Z,31.20
2022-11-01T18:00:11.166Z,31.08
2022-11-01T18:02:45.195Z,38.55
2022-11-01T18:05:14.111Z,36.42
2022-11-01T18:07:43.856Z,36.63
2022-11-01T18:10:19.044Z,37.30
2022-11-01T18:13:11.006Z,36.08
2022-11-01T18:15:43.219Z,32.55
2022-11-01T18:19:00.754Z,33.33
2022-11-01T18:21:43.498Z,32.13
2022-11-01T18:24:19.848Z,30.15
2022-11-01T18:26:49.988Z,30.05
2022-11-01T18:29:24.221Z,31.08
2022-11-01T18:32:05.435Z,25.45
2022-11-01T18:34:55.627Z,26.83
2022-11-01T18:37:45.103Z,22.92
2022-11-01T18:40:14.299Z,20.33
2022-11-01T18:42:42.875Z,17.73
2022-11-01T18:45:26.815Z,15.90
2022-11-01T18:47:59.315Z,16.42
2022-11-01T18:50:27.133Z,16.02
2022-11-01T18:53:23.028Z,15.25
2022-11-01T18:55:52.151Z,14.15
2022-11-01T18:58:25.676Z,12.13
2022-11-01T19:01:13.928Z,13.57
2022-11-01T19:03:42.396Z,12.07
2022-11-01T19:06:20.802Z,11.48
2022-11-01T19:08:56.623Z,11.35
2022-11-01T19:11:28.217Z,10.52
2022-11-01T19:13:58.764Z,10.60
2022-11-01T19:16:26.667Z,8.77
2022-11-01T19:18:54.960Z,9.20
2022-11-01T19:21:23.793Z,10.25
2022-11-01T19:23:58.411Z,10.80
2022-11-01T19:26:33.486Z,10.88
2022-11-01T19:29:01.454Z,11.68
2022-11-01T19:31:31.450Z,13.57
2022-11-01T19:34:02.112Z,15.23
2022-11-01T19:39:25.310Z,15.35
2022-11-01T19:41:56.217Z,16.58
2022-11-01T19:44:24.805Z,17.25
2022-11-01T19:47:18.061Z,17.92
2022-11-01T19:49:45.756Z,19.95
2022-11-01T19:52:25.107Z,16.85
2022-11-01T19:54:53.745Z,29.90
2022-11-01T19:57:31.610Z,16.55
2022-11-01T20:00:15.002Z,15.05
2022-11-01T20:02:45.502Z,15.25
2022-11-01T20:05:34.292Z,14.75
2022-11-01T20:08:14.687Z,15.45
2022-11-01T20:10:43.411Z,15.90
2022-11-01T20:13:11.642Z,14.27
2022-11-01T20:15:40.212Z,13.82
2022-11-01T20:18:08.297Z,14.05
2022-11-01T20:20:37.297Z,13.02
2022-11-01T20:23:25.389Z,13.00
2022-11-01T20:25:53.612Z,11.93
2022-11-01T20:28:21.801Z,10.63
2022-11-01T20:30:49.667Z,11.10
2022-11-01T20:33:17.851Z,10.05
2022-11-01T20:35:45.951Z,9.40
2022-11-01T20:38:13.923Z,9.45
2022-11-01T20:40:41.818Z,10.07
2022-11-01T20:43:09.837Z,8.95
2022-11-01T20:45:37.963Z,9.25
2022-11-01T20:48:07.616Z,9.35
2022-11-01T20:50:36.298Z,8.25
2022-11-01T20:53:05.745Z,7.43
2022-11-01T20:55:34.158Z,7.38
2022-11-01T20:58:02.679Z,8.43
2022-11-01T21:00:32.069Z,8.48
2022-11-01T21:03:00.240Z,8.20
2022-11-01T21:05:29.664Z,8.38
2022-11-01T21:08:00.534Z,8.57
2022-11-01T21:10:33.815Z,7.88
2022-11-01T21:13:02.838Z,8.50
2022-11-01T21:15:38.587Z,8.50
2022-11-01T21:18:12.504Z,9.07
2022-11-01T21:20:49.492Z,8.90
2022-11-01T21:23:32.457Z,8.70
2022-11-01T21:26:01.436Z,9.77
2022-11-01T21:28:42.375Z,9.68
2022-11-01T21:31:10.261Z,9.57
2022-11-01T21:33:39.642Z,8.98
2022-11-01T21:36:35.124Z,9.27
2022-11-01T21:39:10.147Z,9.88
2022-11-01T21:41:51.989Z,9.40
2022-11-01T21:44:56.002Z,8.73
2022-11-01T21:47:25.496Z,8.77
2022-11-01T21:49:53.462Z,8.65
2022-11-01T21:52:21.608Z,8.93
2022-11-01T21:54:49.816Z,10.02
2022-11-01T21:57:17.990Z,11.55
2022-11-01T21:59:45.759Z,12.23
2022-11-01T22:02:14.997Z,13.10
2022-11-01T22:04:44.177Z,11.43
2022-11-01T22:07:12.166Z,17.48
2022-11-01T22:09:40.098Z,18.33
2022-11-01T22:12:08.170Z,13.73
2022-11-01T22:14:36.036Z,12.13
2022-11-01T22:17:05.741Z,13.40
2022-11-01T22:19:33.647Z,11.88
2022-11-01T22:22:02.149Z,10.80
2022-11-01T22:24:30.326Z,11.30
2022-11-01T22:26:59.192Z,12.23
2022-11-01T22:29:27.266Z,15.82
2022-11-01T22:31:55.662Z,18.48
2022-11-01T22:34:23.839Z,20.65
2022-11-01T22:36:53.032Z,21.52
2022-11-01T22:39:21.622Z,22.75
2022-11-01T22:41:49.718Z,24.08
2022-11-01T22:44:19.496Z,25.15
2022-11-01T22:46:53.599Z,26.33
2022-11-01T22:49:30.979Z,25.33
2022-11-01T22:52:04.158Z,26.10
2022-11-01T22:54:41.112Z,29.58
2022-11-01T22:57:08.848Z,26.33
2022-11-01T23:00:00.639Z,25.73
2022-11-01T23:02:33.869Z,25.33
2022-11-01T23:05:06.295Z,24.17
2022-11-01T23:07:48.739Z,25.55
2022-11-01T23:10:31.112Z,23.70
2022-11-01T23:13:29.862Z,24.60
2022-11-01T23:16:11.310Z,23.08
2022-11-01T23:18:40.196Z,24.70
2022-11-01T23:21:08.110Z,24.60
2022-11-01T23:23:44.259Z,24.70
2022-11-01T23:26:12.264Z,24.65
2022-11-01T23:28:45.686Z,23.55
2022-11-01T23:31:13.624Z,24.73
2022-11-01T23:33:43.381Z,25.38
2022-11-01T23:36:19.676Z,24.67
2022-11-01T23:38:55.665Z,26.38
2022-11-01T23:41:42.861Z,24.27
2022-11-01T23:44:34.729Z,26.02
2022-11-01T23:47:25.278Z,24.83
2022-11-01T23:50:22.337Z,26.15
2022-11-01T23:52:54.743Z,24.83
2022-11-01T23:55:26.527Z,24.75
2022-11-01T23:57:55.779Z,25.77
